Time;durP1;ratioP1;P1;durP2;ratioP2;P2;SDS_P1;SDS_P2;PMS_P1;PMS_P2;Temp;Humidity;BMP_temperature;BMP_pressure;BME280_temperature;BME280_humidity;BME280_pressure;Samples;Min_cycle;Max_cycle;Signal;HPM_P1;HPM_P2
2024/01/18 00:00:47;;;;;;;42.20;22.25;;;;;;;-144.05;77.45;57067.59;5092206;28;20062;-77
2024/01/18 00:03:14;;;;;;;48.65;24.15;;;;;;;-144.05;77.17;57103.72;5102287;28;20508;-76
2024/01/18 00:05:40;;;;;;;44.80;23.05;;;;;;;-144.05;77.48;57150.44;5107389;28;20493;-78
2024/01/18 00:08:06;;;;;;;38.15;21.85;;;;;;;-144.05;76.96;57114.34;5109458;28;20023;-77
2024/01/18 00:10:32;;;;;;;45.22;21.77;;;;;;;-144.05;76.82;57133.44;5113669;28;20020;-77
2024/01/18 00:13:01;;;;;;;36.20;20.13;;;;;;;-144.05;76.89;57080.34;5109693;28;20120;-76
2024/01/18 00:15:27;;;;;;;44.25;20.90;;;;;;;-144.05;76.77;57107.97;5094137;28;20102;-78
2024/01/18 00:17:53;;;;;;;43.60;22.35;;;;;;;-144.05;76.67;57099.47;5091001;28;20490;-77
2024/01/18 00:20:22;;;;;;;36.65;20.90;;;;;;;-144.05;75.82;57103.72;5092639;28;20380;-78
2024/01/18 00:22:48;;;;;;;39.35;22.00;;;;;;;-144.05;75.67;57067.59;5092875;28;20055;-76
2024/01/18 00:25:14;;;;;;;35.28;20.42;;;;;;;-144.05;75.65;57095.22;5092434;28;20039;-78
2024/01/18 00:27:40;;;;;;;36.58;19.77;;;;;;;-144.05;75.50;57135.56;5092406;28;20093;-78
2024/01/18 00:30:07;;;;;;;31.48;18.30;;;;;;;-144.05;75.43;57114.34;5092797;28;20036;-77
2024/01/18 00:32:34;;;;;;;30.52;18.27;;;;;;;-144.05;75.10;57118.59;5101861;28;20508;-77
2024/01/18 00:35:00;;;;;;;36.15;20.20;;;;;;;-144.05;75.21;57095.22;5098778;28;20028;-78
2024/01/18 00:37:26;;;;;;;34.58;20.30;;;;;;;-144.05;74.93;57112.22;5091641;28;20452;-77
2024/01/18 00:39:52;;;;;;;34.55;19.92;;;;;;;-144.05;74.66;57120.72;5092939;28;20016;-76
2024/01/18 00:42:18;;;;;;;42.88;20.83;;;;;;;-144.05;74.84;57120.72;5100591;28;20122;-79
2024/01/18 00:44:44;;;;;;;36.67;19.52;;;;;;;-144.05;74.68;57078.22;5090988;28;20491;-77
2024/01/18 00:47:11;;;;;;;36.22;18.55;;;;;;;-144.05;74.54;57069.72;5093496;28;20404;-77
2024/01/18 00:49:37;;;;;;;32.78;18.83;;;;;;;-144.05;74.61;57116.47;5091930;28;20032;-78
2024/01/18 00:52:04;;;;;;;32.28;18.83;;;;;;;-144.05;74.60;57107.97;5090523;28;20024;-78
2024/01/18 00:54:30;;;;;;;32.88;17.13;;;;;;;-144.05;74.63;57114.34;5094963;28;20028;-77
2024/01/18 00:56:56;;;;;;;31.27;17.88;;;;;;;-144.05;74.60;57116.47;5092149;28;20447;-77
2024/01/18 00:59:22;;;;;;;33.00;18.77;;;;;;;-144.05;74.48;57110.09;5091830;28;20089;-77
2024/01/18 01:01:49;;;;;;;34.80;20.02;;;;;;;-144.05;74.12;57086.72;5091989;28;20024;-77
2024/01/18 01:04:15;;;;;;;34.75;18.25;;;;;;;-144.05;73.69;57099.47;5093329;28;20056;-78
2024/01/18 01:06:41;;;;;;;34.95;18.77;;;;;;;-144.05;73.81;57101.59;5101955;28;20032;-77
2024/01/18 01:09:07;;;;;;;31.00;18.40;;;;;;;-144.05;73.48;57129.22;5097015;28;20550;-77
2024/01/18 01:11:34;;;;;;;36.88;19.38;;;;;;;-144.05;73.56;57150.44;5093527;28;20473;-78
2024/01/18 01:14:00;;;;;;;32.95;19.10;;;;;;;-144.05;73.45;57114.34;5092558;28;20460;-77
2024/01/18 01:16:26;;;;;;;33.53;16.67;;;;;;;-144.05;73.74;57105.84;5092684;28;20035;-77
2024/01/18 01:18:52;;;;;;;30.23;18.10;;;;;;;-144.05;73.62;57084.59;5092165;28;20027;-77
2024/01/18 01:21:19;;;;;;;27.20;16.50;;;;;;;-144.05;73.79;57067.59;5092949;28;20029;-76
2024/01/18 01:23:48;;;;;;;34.92;19.30;;;;;;;-144.05;73.74;57122.84;5093031;28;20020;-77
2024/01/18 01:26:15;;;;;;;33.15;18.92;;;;;;;-144.05;73.64;57129.22;5091343;28;20024;-77
2024/01/18 01:28:42;;;;;;;33.65;18.27;;;;;;;-144.05;73.79;57093.09;5092109;28;20027;-75
2024/01/18 01:31:09;;;;;;;33.20;19.52;;;;;;;-144.05;73.86;57118.59;5092184;28;20043;-77
2024/01/18 01:33:36;;;;;;;31.85;18.10;;;1.70;99.90;;;-144.05;73.86;57133.44;5092474;28;20028;-77
2024/01/18 01:36:04;;;;;;;30.92;17.48;;;;;;;-144.05;74.16;57137.69;5092482;28;20106;-77
2024/01/18 01:38:30;;;;;;;30.42;17.35;;;;;;;-144.05;73.95;57090.97;5099273;28;20534;-77
2024/01/18 01:40:56;;;;;;;29.05;16.90;;;;;;;-144.05;74.09;57082.47;5096365;28;20027;-77
2024/01/18 01:43:23;;;;;;;40.85;19.85;;;;;;;-144.05;74.09;57101.59;5094531;28;20115;-76
2024/01/18 01:45:49;;;;;;;31.23;17.90;;;;;;;-144.05;74.22;57114.34;5094856;28;20028;-76
2024/01/18 01:48:16;;;;;;;31.30;17.20;;;;;;;-144.05;74.02;57114.34;5095795;28;20035;-76
2024/01/18 01:50:42;;;;;;;27.27;17.50;;;;;;;-144.05;73.85;57105.84;5100107;28;20031;-77
2024/01/18 01:53:11;;;;;;;33.42;19.27;;;1.40;99.90;;;-144.05;73.82;57078.22;5096714;28;20036;-78
2024/01/18 01:55:40;;;;;;;34.50;20.23;;;;;;;-144.05;73.22;57114.34;5107338;28;20023;-75
2024/01/18 01:58:07;;;;;;;30.95;18.08;;;;;;;-144.05;73.01;57141.94;5095469;28;20146;-78
2024/01/18 02:00:34;;;;;;;31.75;19.52;;;;;;;-144.05;73.30;57078.22;5114174;28;20169;-77
2024/01/18 02:03:00;;;;;;;29.80;17.98;;;;;;;-144.05;73.30;57120.72;5135426;28;20053;-77
2024/01/18 02:05:27;;;;;;;33.03;18.70;;;;;;;-144.05;73.41;57097.34;5100169;28;20036;-78
2024/01/18 02:07:54;;;;;;;32.83;18.80;;;;;;;-144.05;73.30;57122.84;5096399;28;20104;-76
2024/01/18 02:10:22;;;;;;;33.58;19.13;;;;;;;-144.05;73.61;57110.09;5095743;28;20035;-78
2024/01/18 02:12:52;;;;;;;32.00;18.13;;;;;;;-144.05;73.66;57129.22;5094417;28;20024;-76
2024/01/18 02:15:19;;;;;;;34.20;18.83;;;2.10;99.90;;;-144.05;73.55;57107.97;5095900;28;20032;-77
2024/01/18 02:17:45;;;;;;;30.45;18.17;;;;;;;-144.05;73.82;57078.22;5108426;28;20092;-77
2024/01/18 02:20:12;;;;;;;28.70;18.67;;;;;;;-144.05;73.77;57103.72;5113197;28;20023;-77
2024/01/18 02:22:45;;;;;;;32.10;18.58;;;2.10;99.90;;;-144.05;73.66;57107.97;5097675;28;20046;-76
2024/01/18 02:25:25;;;;;;;28.40;15.57;;;;;;;-144.05;73.96;57114.34;5095288;28;20024;-78
2024/01/18 02:27:59;;;;;;;38.13;18.67;;;2.00;99.90;;;-144.05;73.71;57107.97;5095694;28;20526;-77
2024/01/18 02:30:26;;;;;;;28.33;17.48;;;;;;;-144.05;73.97;57127.09;5102831;28;20032;-77
2024/01/18 02:32:52;;;;;;;33.20;18.05;;;;;;;-144.05;73.82;57135.56;5095844;28;20028;-77
2024/01/18 02:35:19;;;;;;;35.55;19.70;;;0.10;99.90;;;-144.05;73.52;57122.84;5095678;28;20024;-77
2024/01/18 02:37:45;;;;;;;34.47;20.63;;;;;;;-144.05;73.53;57086.72;5108660;28;20489;-78
2024/01/18 02:40:12;;;;;;;35.05;19.35;;;;;;;-144.05;73.74;57099.47;5102682;27;20069;-77
2024/01/18 02:42:38;;;;;;;30.63;16.77;;;;;;;-144.05;73.59;57129.22;5098230;28;20141;-75
2024/01/18 02:45:06;;;;;;;29.67;17.58;;;;;;;-144.05;73.78;57084.59;5095102;28;20028;-79
2024/01/18 02:47:34;;;;;;;27.75;16.27;;;;;;;-144.05;73.84;57090.97;5095589;28;20032;-76
2024/01/18 02:50:00;;;;;;;31.33;18.25;;;;;;;-144.05;74.19;57118.59;5095200;28;20085;-76
2024/01/18 02:52:27;;;;;;;33.97;17.98;;;;;;;-144.05;74.10;57124.97;5095244;28;20070;-78
2024/01/18 02:54:53;;;;;;;31.40;18.02;;;;;;;-144.05;74.12;57099.47;5094688;28;20032;-78
2024/01/18 02:57:19;;;;;;;32.92;20.35;;;;;;;-144.05;74.16;57095.22;5093578;28;20024;-79
2024/01/18 02:59:46;;;;;;;34.55;18.58;;;;;;;-144.05;74.08;57120.72;5095262;28;20472;-78
2024/01/18 03:02:12;;;;;;;31.00;18.30;;;;;;;-144.05;74.17;57101.59;5095172;28;20032;-78
2024/01/18 03:04:38;;;;;;;31.20;19.05;;;;;;;-144.05;73.97;57135.56;5095723;28;20477;-75
2024/01/18 03:07:04;;;;;;;37.47;20.60;;;;;;;-144.05;73.84;57129.22;5098826;28;20057;-76
2024/01/18 03:09:33;;;;;;;30.05;18.50;;;;;;;-144.05;73.90;57122.84;5103664;28;20034;-79
2024/01/18 03:11:59;;;;;;;38.30;19.77;;;;;;;-144.05;73.80;57122.84;5106070;28;20047;-77
2024/01/18 03:14:25;;;;;;;32.10;19.05;;;;;;;-144.05;73.88;57124.97;5095642;28;20042;-78
2024/01/18 03:16:51;;;;;;;34.65;18.70;;;;;;;-144.05;74.02;57105.84;5098830;28;20024;-79
2024/01/18 03:19:18;;;;;;;34.60;19.75;;;;;;;-144.05;73.85;57088.84;5096582;28;20099;-78
2024/01/18 03:21:44;;;;;;;34.67;19.88;;;;;;;-144.05;73.52;57114.34;5096393;28;20024;-76
2024/01/18 03:24:10;;;;;;;37.42;20.90;;;;;;;-144.05;72.91;57133.44;5094146;28;20552;-78
2024/01/18 03:26:36;;;;;;;34.72;19.70;;;;;;;-144.05;72.66;57090.97;5094504;28;20123;-77
2024/01/18 03:29:03;;;;;;;37.17;20.40;;;;;;;-144.05;72.32;57103.72;5095450;28;20063;-77
2024/01/18 03:31:29;;;;;;;36.30;19.65;;;;;;;-144.05;72.48;57090.97;5095790;28;20027;-77
2024/01/18 03:33:55;;;;;;;34.67;21.02;;;;;;;-144.05;72.46;57105.84;5095484;28;20020;-78
2024/01/18 03:36:22;;;;;;;37.60;20.23;;;;;;;-144.05;72.59;57122.84;5095757;28;20028;-76
2024/01/18 03:38:48;;;;;;;35.10;22.10;;;;;;;-144.05;72.69;57090.97;5094671;28;20020;-80
2024/01/18 03:41:17;;;;;;;33.20;18.58;;;-1.20;99.90;;;-144.05;73.00;57131.31;5094802;28;20058;-77
2024/01/18 03:43:43;;;;;;;35.47;20.38;;;;;;;-144.05;72.83;57099.47;5092907;28;20024;-77
2024/01/18 03:46:15;;;;;;;31.48;18.13;;;-1.20;99.90;;;-144.05;72.91;57148.31;5092958;28;20110;-77
2024/01/18 03:48:42;;;;;;;34.78;18.70;;;;;;;-144.05;73.12;57131.31;5097579;28;20077;-77
2024/01/18 03:51:08;;;;;;;34.97;19.38;;;;;;;-144.05;73.07;57107.97;5093780;28;20028;-75
2024/01/18 03:53:43;;;;;;;27.08;17.35;;;-1.20;99.90;;;-144.05;73.25;57103.72;5092687;28;20058;-77
2024/01/18 03:56:12;;;;;;;24.87;14.80;;;-0.80;99.90;;;-144.05;73.40;57141.94;5101034;28;20036;-77
2024/01/18 03:58:41;;;;;;;37.15;20.00;;;;;;;-144.05;73.43;57088.84;5093959;28;20024;-76
2024/01/18 04:01:07;;;;;;;34.03;19.05;;;;;;;-144.05;73.28;57082.47;5093171;28;20028;-77
2024/01/18 04:03:34;;;;;;;33.45;20.10;;;;;;;-144.05;73.35;57099.47;5097200;28;20047;-77
2024/01/18 04:06:00;;;;;;;30.25;18.45;;;;;;;-144.05;73.29;57148.31;5101638;28;20481;-78
2024/01/18 04:08:26;;;;;;;32.38;20.55;;;;;;;-144.05;73.38;57120.72;5092255;28;20023;-76
2024/01/18 04:10:52;;;;;;;45.25;22.23;;;;;;;-144.05;73.23;57103.72;5093338;28;20024;-77
2024/01/18 04:13:18;;;;;;;39.53;20.10;;;;;;;-144.05;73.27;57114.34;5100782;28;20522;-79
2024/01/18 04:15:45;;;;;;;36.92;21.52;;;;;;;-144.05;73.32;57088.84;5105852;28;20032;-79
2024/01/18 04:18:11;;;;;;;32.88;20.10;;;;;;;-144.05;73.32;57116.47;5117983;28;20030;-78
2024/01/18 04:20:37;;;;;;;34.85;21.35;;;;;;;-144.05;73.60;57095.22;5113344;28;20456;-79
2024/01/18 04:23:06;;;;;;;35.58;20.42;;;;;;;-144.05;73.60;57101.59;5096760;28;20096;-81
2024/01/18 04:25:33;;;;;;;34.58;19.65;;;;;;;-144.05;73.58;57073.97;5106827;28;20127;-77
2024/01/18 04:27:59;;;;;;;36.05;19.05;;;;;;;-144.05;73.71;57093.09;5107467;28;20032;-77
2024/01/18 04:30:25;;;;;;;36.65;17.83;;;;;;;-144.05;73.91;57101.59;5103860;28;20047;-77
2024/01/18 04:32:52;;;;;;;37.20;20.38;;;;;;;-144.05;74.02;57080.34;5098256;28;20085;-78
2024/01/18 04:35:18;;;;;;;35.20;20.10;;;;;;;-144.05;74.09;57110.09;5097397;28;20032;-78
2024/01/18 04:37:44;;;;;;;36.80;20.65;;;;;;;-144.05;74.15;57137.69;5098397;28;20031;-79
2024/01/18 04:40:11;;;;;;;28.85;18.95;;;;;;;-144.05;74.04;57082.47;5092931;28;20028;-78
2024/01/18 04:42:37;;;;;;;36.88;21.00;;;;;;;-144.05;73.90;57082.47;5093852;28;20060;-76
2024/01/18 04:45:06;;;;;;;35.75;20.42;;;;;;;-144.05;74.12;57112.22;5092926;28;20142;-76
2024/01/18 04:47:32;;;;;;;39.03;20.25;;;;;;;-144.05;73.98;57103.72;5091432;28;20024;-80
2024/01/18 04:49:59;;;;;;;37.63;20.85;;;;;;;-144.05;73.94;57107.97;5091117;28;20421;-77
2024/01/18 04:52:25;;;;;;;39.28;22.45;;;;;;;-144.05;74.29;57059.09;5101914;28;20027;-78
2024/01/18 04:54:51;;;;;;;35.85;20.40;;;;;;;-144.05;74.31;57122.84;5096060;28;20031;-77
2024/01/18 04:57:17;;;;;;;34.13;21.65;;;;;;;-144.05;73.52;57127.09;5090865;28;20052;-76
2024/01/18 04:59:44;;;;;;;39.83;20.38;;;;;;;-144.05;74.10;57088.84;5091178;28;20361;-77
2024/01/18 05:02:10;;;;;;;39.15;23.08;;;;;;;-144.05;73.96;57124.97;5090848;28;20035;-77
2024/01/18 05:04:36;;;;;;;45.10;23.98;;;;;;;-144.05;73.83;57103.72;5090889;28;20054;-78
2024/01/18 05:07:02;;;;;;;45.45;25.30;;;;;;;-144.05;74.07;57131.31;5091794;28;20024;-77
2024/01/18 05:09:29;;;;;;;37.70;22.02;;;;;;;-144.05;74.16;57078.22;5091344;28;20032;-75
2024/01/18 05:11:55;;;;;;;37.45;21.42;;;;;;;-144.05;74.16;57099.47;5105354;28;20122;-79
2024/01/18 05:14:21;;;;;;;39.28;22.38;;;;;;;-144.05;73.91;57116.47;5106750;28;20031;-76
2024/01/18 05:16:51;;;;;;;37.83;21.52;;;;;;;-144.05;74.14;57090.97;5098164;28;20525;-74
2024/01/18 05:19:18;;;;;;;47.22;25.58;;;;;;;-144.05;73.89;57105.84;5098147;28;20028;-76
2024/01/18 05:21:44;;;;;;;40.88;23.60;;;;;;;-144.05;74.16;57131.31;5097998;28;20055;-78
2024/01/18 05:24:10;;;;;;;37.38;21.63;;;;;;;-144.05;74.29;57101.59;5097815;28;20032;-79
2024/01/18 05:26:37;;;;;;;36.67;23.13;;;;;;;-144.05;74.06;57099.47;5097770;28;20067;-76
2024/01/18 05:29:03;;;;;;;44.78;24.85;;;;;;;-144.05;73.60;57088.84;5098092;28;20085;-76
2024/01/18 05:31:29;;;;;;;43.42;22.33;;;;;;;-144.05;73.23;57124.97;5097718;28;20036;-77
2024/01/18 05:33:56;;;;;;;36.25;22.15;;;;;;;-144.05;73.75;57135.56;5096601;28;20107;-77
2024/01/18 05:36:22;;;;;;;39.42;22.52;;;;;;;-144.05;73.83;57061.22;5108613;28;20032;-75
2024/01/18 05:38:48;;;;;;;37.50;21.05;;;;;;;-144.05;73.82;57135.56;5098625;28;20032;-77
2024/01/18 05:41:14;;;;;;;33.75;21.10;;;;;;;-144.05;74.19;57082.47;5106849;28;20549;-78
2024/01/18 05:43:41;;;;;;;32.17;20.65;;;;;;;-144.05;74.18;57105.84;5098574;28;20095;-78
2024/01/18 05:46:08;;;;;;;39.08;22.05;;;;;;;-144.05;74.09;57103.72;5098342;28;20032;-77
2024/01/18 05:48:34;;;;;;;63.78;26.02;;;;;;;-144.05;74.21;57118.59;5097599;28;20020;-78
2024/01/18 05:51:00;;;;;;;57.70;26.98;;;-1.20;99.90;;;-144.05;74.06;57095.22;5097802;28;20039;-78
2024/01/18 05:53:27;;;;;;;62.65;26.10;;;;;;;-144.05;73.52;57101.59;5100639;28;20024;-78
2024/01/18 05:55:53;;;;;;;64.43;27.17;;;;;;;-144.05;73.61;57137.69;5097243;28;20117;-78
2024/01/18 05:58:19;;;;;;;60.00;25.63;;;;;;;-144.05;74.04;57084.59;5098697;28;20031;-78
2024/01/18 06:00:45;;;;;;;41.35;21.58;;;;;;;-144.05;74.35;57103.72;5097491;28;20020;-78
2024/01/18 06:03:12;;;;;;;64.90;25.95;;;;;;;-144.05;74.40;57090.97;5098314;28;20462;-77
2024/01/18 06:05:38;;;;;;;63.25;29.45;;;;;;;-144.05;74.41;57101.59;5097620;28;20130;-77
2024/01/18 06:08:04;;;;;;;58.03;26.80;;;;;;;-144.05;73.77;57131.31;5104436;28;20392;-78
2024/01/18 06:10:31;;;;;;;45.35;23.73;;;;;;;-144.05;73.82;57116.47;5099398;28;20504;-76
2024/01/18 06:12:58;;;;;;;40.55;23.75;;;;;;;-144.05;74.17;57099.47;5100097;28;20047;-76
2024/01/18 06:15:24;;;;;;;45.13;25.13;;;;;;;-144.05;74.40;57120.72;5101176;28;20027;-78
2024/01/18 06:17:50;;;;;;;41.97;22.70;;;;;;;-144.05;73.97;57116.47;5101300;28;20028;-79
2024/01/18 06:20:16;;;;;;;48.05;24.40;;;;;;;-144.05;74.26;57110.09;5101145;28;20024;-77
2024/01/18 06:22:43;;;;;;;49.55;25.65;;;;;;;-144.05;74.24;57114.34;5098964;28;20106;-77
2024/01/18 06:25:09;;;;;;;45.95;24.17;;;;;;;-144.05;73.99;57137.69;5099978;28;20111;-79
2024/01/18 06:27:35;;;;;;;39.63;23.55;;;;;;;-144.05;74.39;57127.09;5102366;28;20019;-78
2024/01/18 06:30:02;;;;;;;39.20;23.92;;;;;;;-144.05;74.10;57107.97;5103473;28;20020;-79
2024/01/18 06:32:28;;;;;;;44.70;23.70;;;;;;;-144.05;74.13;57133.44;5105382;28;20032;-78
2024/01/18 06:34:54;;;;;;;40.88;22.95;;;;;;;-144.05;74.11;57129.22;5115333;28;20028;-79
2024/01/18 06:37:20;;;;;;;44.90;24.23;;;;;;;-144.05;74.19;57105.84;5103630;28;20063;-79
2024/01/18 06:39:47;;;;;;;50.17;26.23;;;;;;;-144.05;74.48;57101.59;5098687;28;20054;-78
2024/01/18 06:42:13;;;;;;;43.60;25.15;;;;;;;-144.05;74.43;57120.72;5097125;28;20032;-77
2024/01/18 06:44:39;;;;;;;46.78;26.30;;;;;;;-144.05;74.63;57129.22;5098534;28;20028;-77
2024/01/18 06:47:06;;;;;;;44.75;24.48;;;;;;;-144.05;74.75;57090.97;5097791;28;20032;-79
2024/01/18 06:49:32;;;;;;;52.05;27.50;;;;;;;-144.05;74.36;57107.97;5105426;28;20031;-76
2024/01/18 06:51:58;;;;;;;47.53;25.98;;;;;;;-144.05;74.41;57133.44;5098352;28;20492;-78
2024/01/18 06:54:24;;;;;;;37.47;23.75;;;;;;;-144.05;74.37;57090.97;5097836;28;20040;-77
2024/01/18 06:56:51;;;;;;;46.63;24.88;;;;;;;-144.05;74.44;57101.59;5097915;28;20643;-78
2024/01/18 06:59:17;;;;;;;44.15;25.27;;;;;;;-144.05;74.44;57120.72;5104131;28;20051;-78
2024/01/18 07:01:43;;;;;;;41.72;25.20;;;;;;;-144.05;74.45;57129.22;5110410;28;20023;-77
2024/01/18 07:04:11;;;;;;;44.53;24.35;;;-2.40;99.90;;;-144.05;74.40;57135.56;5122218;28;20032;-76
2024/01/18 07:06:37;;;;;;;41.58;23.40;;;;;;;-144.05;74.40;57120.72;5099087;28;20024;-78
2024/01/18 07:09:06;;;;;;;46.72;25.25;;;;;;;-144.05;74.53;57129.22;5097897;28;20028;-77
2024/01/18 07:11:32;;;;;;;42.80;25.48;;;;;;;-144.05;74.59;57156.81;5102251;28;20042;-76
2024/01/18 07:13:58;;;;;;;46.47;25.52;;;;;;;-144.05;74.77;57137.69;5097604;28;20028;-80
2024/01/18 07:16:25;;;;;;;39.08;24.48;;;;;;;-144.05;74.95;57103.72;5098998;28;20024;-77
2024/01/18 07:18:51;;;;;;;43.97;25.20;;;;;;;-144.05;74.96;57124.97;5099907;28;20040;-79
2024/01/18 07:21:17;;;;;;;39.40;22.55;;;;;;;-144.05;75.05;57118.59;5100253;28;20035;-78
2024/01/18 07:23:43;;;;;;;48.40;23.63;;;;;;;-144.05;75.36;57116.47;5103040;28;20032;-78
2024/01/18 07:26:10;;;;;;;43.28;25.90;;;;;;;-144.05;75.73;57144.06;5100257;28;20032;-78
2024/01/18 07:28:36;;;;;;;47.38;23.75;;;;;;;-144.05;75.70;57161.06;5103901;28;20039;-79
2024/01/18 07:31:02;;;;;;;45.45;24.95;;;;;;;-144.05;75.90;57141.94;5102977;28;20060;-78
2024/01/18 07:33:29;;;;;;;49.75;25.15;;;;;;;-144.05;75.75;57120.72;5102828;28;20028;-78
2024/01/18 07:35:55;;;;;;;46.33;25.95;;;;;;;-144.05;76.04;57129.22;5100753;28;20026;-79
2024/01/18 07:38:22;;;;;;;50.22;25.60;;;;;;;-144.05;75.64;57148.31;5101888;28;20032;-78
2024/01/18 07:40:48;;;;;;;42.42;24.52;;;;;;;-144.05;75.54;57158.94;5105166;28;20082;-77
2024/01/18 07:43:14;;;;;;;44.08;24.90;;;;;;;-144.05;76.03;57184.44;5099216;28;20101;-78
2024/01/18 07:45:41;;;;;;;47.03;25.08;;;;;;;-144.05;75.97;57163.19;5112536;28;20028;-78
2024/01/18 07:48:07;;;;;;;47.28;24.92;;;;;;;-144.05;76.04;57144.06;5097197;28;20109;-77
2024/01/18 07:50:34;;;;;;;44.15;24.50;;;;;;;-144.05;76.12;57148.31;5097240;28;20032;-77
2024/01/18 07:53:00;;;;;;;46.00;26.25;;;;;;;-144.05;76.76;57148.31;5098473;28;20119;-78
2024/01/18 07:55:26;;;;;;;52.08;27.58;;;;;;;-144.05;77.08;57175.94;5102230;28;20042;-77
2024/01/18 07:57:52;;;;;;;56.85;29.55;;;;;;;-144.05;76.46;57161.06;5098114;28;20032;-77
2024/01/18 08:00:19;;;;;;;55.53;29.65;;;;;;;-144.05;76.39;57137.69;5096672;28;20133;-76
2024/01/18 08:02:45;;;;;;;50.80;28.75;;;;;;;-144.05;76.35;57129.22;5096720;28;20046;-77
2024/01/18 08:05:12;;;;;;;46.63;27.02;;;;;;;-144.05;76.16;57133.44;5099288;28;20036;-79
2024/01/18 08:07:39;;;;;;;46.53;25.02;;;;;;;-144.05;76.67;57150.44;5114601;28;20086;-76
2024/01/18 08:10:08;;;;;;;46.17;25.88;;;;;;;-144.05;76.49;57127.09;5110560;28;20036;-77
2024/01/18 08:12:35;;;;;;;45.22;26.88;;;;;;;-144.05;76.86;57154.69;5115600;28;20178;-75
2024/01/18 08:15:01;;;;;;;46.67;26.95;;;;;;;-144.05;76.59;57161.06;5097467;28;20039;-79
2024/01/18 08:17:27;;;;;;;50.53;28.35;;;;;;;-144.05;76.61;57133.44;5098743;28;20464;-79
2024/01/18 08:19:54;;;;;;;44.88;26.77;;;;;;;-144.05;76.89;57161.06;5101532;28;20113;-78
2024/01/18 08:22:21;;;;;;;50.55;28.08;;;;;;;-144.05;76.95;57158.94;5100065;28;20047;-77
2024/01/18 08:24:47;;;;;;;57.58;28.85;;;;;;;-144.05;76.80;57152.56;5104999;28;20028;-78
2024/01/18 08:27:14;;;;;;;51.13;28.05;;;;;;;-144.05;77.02;57131.31;5097871;28;20097;-78
2024/01/18 08:29:40;;;;;;;48.60;26.77;;;;;;;-144.05;77.08;57133.44;5096512;28;20032;-77
2024/01/18 08:32:08;;;;;;;57.05;30.80;;;;;;;-144.05;77.28;57103.72;5096805;28;20059;-78
2024/01/18 08:34:35;;;;;;;46.15;26.92;;;;;;;-144.05;77.31;57135.56;5097442;28;20461;-77
2024/01/18 08:37:03;;;;;;;49.30;26.50;;;;;;;-144.05;76.95;57127.09;5100385;28;20081;-79
2024/01/18 08:39:29;;;;;;;44.50;25.50;;;;;;;-144.05;76.61;57103.72;5104084;28;20050;-78
2024/01/18 08:41:59;;;;;;;50.88;27.65;;;;;;;-144.05;76.31;57120.72;5108365;28;20143;-76
2024/01/18 08:44:27;;;;;;;51.80;30.10;;;;;;;-144.05;76.40;57122.84;5110565;28;20032;-77
2024/01/18 08:46:53;;;;;;;53.08;29.60;;;;;;;-144.05;76.27;57073.97;5110954;28;20062;-77
2024/01/18 08:49:24;;;;;;;56.40;29.45;;;;;;;-144.05;76.40;57112.22;5108523;28;20032;-77
2024/01/18 08:51:52;;;;;;;51.05;29.63;;;;;;;-144.05;76.35;57116.47;5096824;28;20036;-77
2024/01/18 08:54:20;;;;;;;61.63;31.50;;;;;;;-144.05;76.00;57105.84;5096864;28;20035;-78
2024/01/18 08:56:47;;;;;;;53.75;30.30;;;;;;;-144.05;74.91;57054.88;5099841;28;20032;-79
2024/01/18 08:59:13;;;;;;;56.58;31.08;;;;;;;-144.05;74.16;57040.00;5097139;28;20054;-77
2024/01/18 09:01:39;;;;;;;52.97;29.70;;;;;;;-144.05;74.09;57073.97;5096395;28;20481;-77
2024/01/18 09:04:05;;;;;;;50.90;30.88;;;;;;;-144.05;73.65;57050.63;5096258;28;20040;-78
2024/01/18 09:06:32;;;;;;;47.47;28.52;;;;;;;-144.05;73.19;57044.25;5098888;28;20030;-78
2024/01/18 09:08:58;;;;;;;49.50;28.05;;;;;;;-144.05;72.96;57052.75;5096767;28;20038;-79
2024/01/18 09:11:24;;;;;;;46.90;27.13;;;;;;;-144.05;69.80;57078.22;5098888;28;20028;-78
2024/01/18 09:13:50;;;;;;;45.35;27.02;;;;;;;-144.05;70.24;57059.09;5100210;28;20028;-77
2024/01/18 09:16:17;;;;;;;41.05;24.48;;;;;;;-144.05;69.88;57027.25;5097263;28;20036;-77
2024/01/18 09:18:43;;;;;;;41.78;24.65;;;;;;;-144.05;68.91;57054.88;5097934;28;20024;-79
2024/01/18 09:21:09;;;;;;;38.67;23.20;;;;;;;-144.05;68.71;57027.25;5098732;28;20036;-78
2024/01/18 09:23:37;;;;;;;43.92;25.92;;;1.50;99.90;;;-144.05;67.72;57052.75;5113659;28;20040;-77
2024/01/18 09:26:03;;;;;;;41.63;24.38;;;-2.40;99.90;;;-144.05;67.10;57065.47;5103840;28;20051;-79
2024/01/18 09:28:29;;;;;;;40.30;22.48;;;-2.30;99.90;;;-144.05;65.70;57050.63;5098887;28;20092;-78
2024/01/18 09:30:56;;;;;;;39.65;22.70;;;-1.50;99.90;;;-144.05;64.84;57048.50;5106137;28;20032;-78
2024/01/18 09:33:23;;;;;;;39.60;21.83;;;-1.40;99.90;;;-144.05;63.87;57018.75;5114144;28;20028;-78
2024/01/18 09:35:49;;;;;;;34.72;21.90;;;-0.10;99.90;;;-144.05;62.35;57052.75;5098814;28;20036;-79
2024/01/18 09:38:15;;;;;;;33.10;20.05;;;;;;;-144.05;60.83;57018.75;5097492;28;20020;-78
2024/01/18 09:40:41;;;;;;;35.30;21.17;;;;;;;-144.05;60.52;57014.50;5097566;28;20047;-78
2024/01/18 09:43:10;;;;;;;32.60;21.15;;;2.90;99.90;;;-144.05;59.85;57018.75;5097913;28;20028;-79
2024/01/18 09:45:46;;;;;;;37.88;20.70;;;-0.50;99.90;;;-144.05;59.53;57059.09;5116230;28;20024;-78
2024/01/18 09:48:14;;;;;;;33.97;20.38;;;-0.20;99.90;;;-144.05;59.10;57046.38;5114836;28;20043;-75
2024/01/18 09:50:44;;;;;;;29.58;18.67;;;3.20;99.90;;;-144.05;57.93;57052.75;5111620;28;20043;-76
2024/01/18 09:53:14;;;;;;;32.45;19.23;;;3.10;99.90;;;-144.05;57.30;57035.75;5102149;28;20049;-76
2024/01/18 09:55:40;;;;;;;31.85;18.73;;;;;;;-144.05;57.06;57033.63;5098226;28;20139;-76
2024/01/18 09:58:12;;;;;;;34.40;18.10;;;;;;;-144.05;55.38;57018.75;5102758;28;20031;-76
2024/01/18 10:00:47;;;;;;;33.33;20.55;;;3.80;99.90;;;-144.05;55.82;57025.13;5107371;28;20020;-76
2024/01/18 10:03:13;;;;;;;29.27;18.05;;;;;;;-144.05;56.69;57056.97;5107347;28;20461;-76
2024/01/18 10:05:43;;;;;;;27.52;17.98;;;;;;;-144.05;57.95;57010.25;5100725;28;20059;-76
2024/01/18 10:08:09;;;;;;;31.38;17.35;;;;;;;-144.05;57.15;57029.38;5101656;28;20032;-79
2024/01/18 10:10:35;;;;;;;27.02;17.00;;;;;;;-144.05;57.28;57001.75;5099059;28;20024;-76
2024/01/18 10:13:02;;;;;;;33.80;18.08;;;2.80;99.90;;;-144.05;56.61;57029.38;5097803;28;20035;-77
2024/01/18 10:15:33;;;;;;;26.75;19.35;;;3.70;99.90;;;-144.05;56.77;57023.00;5106668;28;20031;-76
2024/01/18 10:18:06;;;;;;;35.03;17.85;;;3.80;99.90;;;-144.05;56.89;57054.88;5097900;28;20110;-78
2024/01/18 10:20:32;;;;;;;29.27;18.92;;;;;;;-144.05;57.34;57010.25;5099485;28;20024;-76
2024/01/18 10:23:00;;;;;;;30.45;17.08;;;3.20;99.90;;;-144.05;56.98;57035.75;5105159;28;20111;-77
2024/01/18 10:25:28;;;;;;;26.65;16.70;;;;;;;-144.05;56.52;57031.50;5096857;28;20024;-77
2024/01/18 10:27:56;;;;;;;27.88;15.65;;;;;;;-144.05;56.00;57020.88;5097839;28;20054;-77
2024/01/18 10:30:23;;;;;;;28.92;16.50;;;;;;;-144.05;55.63;57054.88;5111462;28;20027;-77
2024/01/18 10:32:51;;;;;;;30.38;16.15;;;;;;;-144.05;55.28;57016.63;5105917;28;20024;-79
2024/01/18 10:35:28;;;;;;;25.05;14.95;;;4.90;99.90;;;-144.05;54.56;57031.50;5125264;28;20284;-79
2024/01/18 10:38:06;;;;;;;26.77;15.63;;;4.60;99.90;;;-144.05;55.19;57046.38;5116723;28;20100;-79
2024/01/18 10:40:36;;;;;;;23.17;13.00;;;0.60;99.90;;;-144.05;55.68;57001.75;5117039;28;20083;-78
2024/01/18 10:43:04;;;;;;;30.35;14.15;;;;;;;-144.05;55.79;56989.00;5125319;27;20107;-78
2024/01/18 10:45:31;;;;;;;20.20;12.38;;;4.30;99.90;;;-144.05;55.49;56997.50;5112941;28;20039;-78
2024/01/18 10:47:59;;;;;;;17.33;11.55;;;4.70;99.90;;;-144.05;55.40;56989.00;5100344;28;20441;-75
2024/01/18 10:50:29;;;;;;;18.23;11.35;;;;;;;-144.05;55.51;57014.50;5110691;28;20438;-77